Boynton Beach, FL (33437)

10:40 AM EDT on August 29, 2015 (GMT -0400)
Pipers Glen Estates | | Change Station
CLOSE
Current Station
Personal Weather Station
Location: Boynton Beach, FL
Elevation: 27 ft
Nearby Weather Stations

Elev 27 ft 26.49 °N, 80.14 °W | Updated 10 seconds ago

Mostly Cloudy
Mostly Cloudy
85.6 °F
Feels Like 99 °F
N
3.1
Wind Variable Wind from SSW
Gusts 3.1 mph

Today
High -- | Low -- °F
--% Chance of Precip.
Yesterday
High -- | Low -- °F
Precip. -- in
6:59 AM 7:43 PM
Full, 100% visible
Pressure 30.06 in
Visibility 10.0 miles
Clouds Scattered Clouds 1900 ft
Scattered Clouds 2900 ft
Mostly Cloudy 25000 ft
Heat Index 99 °F
Dew Point 79 °F
Humidity 81%
Rainfall 0.00 in
Snow Depth Not available.
UV 3 out of 12
Pollen 5.20 out of 12
Air Quality Not available.
Flu Activity Not available.
METAR KPBI 291353Z 10011KT 10SM SCT019 SCT029 BKN250 31/25 A3005 RMK AO2 SLP177 T03060250
Pressure 30.06 in
Visibility 10.0 miles
Clouds Scattered Clouds 1900 ft
Scattered Clouds 2900 ft
Mostly Cloudy 25000 ft
Heat Index 99 °F
Dew Point 79 °F
Humidity 81%
Rainfall 0.00 in
Snow Depth Not available.
UV 3 out of 12
Pollen 5.20 out of 12
Air Quality Not available.
Flu Activity Not available.
METAR KPBI 291353Z 10011KT 10SM SCT019 SCT029 BKN250 31/25 A3005 RMK AO2 SLP177 T03060250

10-Day Weather Forecast

×

Almanac

Astronomy

Aug. 29, 2015 Rise Set
Actual Time
Civil Twilight
Nautical Twilight
Astronomical Twilight
Moon
Length of Visible Light
Length of Day
Tomorrow will be .
, % of the Moon is Illuminated

Today's Extremes

State Highs State Lows

Community

WunderPhotos

Upload Photos

1,850,707 photos uploaded!

WunderBlogs® & News

Nearby

Air Quality

  Air Quality AQ Index Pollutant
Not available.

Snow Depth

Station Depth Elevation

Earthquake Activity

City Distance Mag. Time & Date
Minimum magnitude displayed is 2.5.

Coastal Water Temperatures

Place Temperature

Stations

Nearby Weather Stations

Station Location Temp. Windchill Dew Point Humidity Wind Precip. Elev Updated Type